Date,TemperatureHighF,TemperatureAvgF,TemperatureLowF,DewpointHighF,DewpointAvgF,DewpointLowF,HumidityHigh,HumidityAvg,HumidityLow,PressureMaxIn,PressureMinIn,WindSpeedMaxMPH,WindSpeedAvgMPH,GustSpeedMaxMPH,PrecipitationSumIn
2013-1-1,70,58,48,-100,-100,-100,0,0,100,0.00,40.00,0,-999,0,0.00
2013-1-2,47,44,41,-100,-100,-100,0,0,100,0.00,40.00,0,-999,0,0.00
2013-1-3,52,47,42,-100,-100,-100,0,0,100,0.00,40.00,0,-999,0,0.00
2013-1-4,53,49,44,-100,-100,-100,0,0,100,0.00,40.00,0,-999,0,0.00
2013-1-5,50,47,44,-100,-100,-100,0,0,100,0.00,40.00,0,-999,0,0.00
2013-1-6,60,48,41,-100,-100,-100,0,0,100,0.00,40.00,0,-999,0,0.00
2013-1-7,65,52,39,-100,-100,-100,0,0,100,0.00,40.00,0,-999,0,0.00
2013-1-8,72,64,54,-100,-100,-100,0,0,100,0.00,40.00,0,-999,0,0.00
2013-1-9,70,66,63,-100,-100,-100,0,0,100,0.00,40.00,0,-999,0,0.00
2013-1-10,76,62,54,-100,-100,-100,0,0,100,0.00,40.00,0,-999,0,0.00
2013-1-11,73,63,49,-100,-100,-100,0,0,100,0.00,40.00,0,-999,0,0.00
2013-1-12,74,73,71,-100,-100,-100,0,0,100,0.00,40.00,0,-999,0,0.00
2013-1-13,73,52,43,-100,-100,-100,0,0,100,0.00,40.00,0,-999,0,0.00
2013-1-14,49,45,40,-100,-100,-100,0,0,100,0.00,40.00,0,-999,0,0.00
2013-1-15,47,42,39,-100,-100,-100,0,0,100,0.00,40.00,0,-999,0,0.00
2013-1-16,55,44,35,-100,-100,-100,0,0,100,0.00,40.00,0,-999,0,0.00
2013-1-17,65,46,32,-100,-100,-100,0,0,100,0.00,40.00,0,-999,0,0.00
2013-1-18,66,52,40,-100,-100,-100,0,0,100,0.00,40.00,0,-999,0,0.00
2013-1-19,73,55,46,-100,-100,-100,0,0,100,0.00,40.00,0,-999,0,0.00
2013-1-20,80,59,44,-100,-100,-100,0,0,100,0.00,40.00,0,-999,0,0.00
2013-1-21,78,60,48,-100,-100,-100,0,0,100,0.00,40.00,0,-999,0,0.00
2013-1-22,75,58,47,-100,-100,-100,0,0,100,0.00,40.00,0,-999,0,0.00
2013-1-23,79,63,53,-100,-100,-100,0,0,100,0.00,40.00,0,-999,0,0.00
2013-1-24,80,68,60,-100,-100,-100,0,0,100,0.00,40.00,0,-999,0,0.00
2013-1-25,81,69,61,-100,-100,-100,0,0,100,0.00,40.00,0,-999,0,0.00
2013-1-26,79,69,62,-100,-100,-100,0,0,100,0.00,40.00,0,-999,0,0.00
2013-1-27,77,70,62,-100,-100,-100,0,0,100,0.00,40.00,0,-999,0,0.00
2013-1-28,78,73,70,-100,-100,-100,0,0,100,0.00,40.00,0,-999,0,0.00
2013-1-29,77,73,60,-100,-100,-100,0,0,100,0.00,40.00,0,-999,0,0.00
2013-1-30,65,60,42,-100,-100,-100,0,0,100,0.00,40.00,0,-999,0,0.00
2013-1-31,74,61,37,-100,-100,-100,0,0,100,0.00,40.00,0,-999,0,0.00
2013-2-1,73,60,49,-100,-100,-100,0,0,100,0.00,40.00,0,-999,0,0.00
2013-2-2,80,62,51,-100,-100,-100,0,0,100,0.00,40.00,0,-999,0,0.00
2013-2-3,74,62,53,-100,-100,-100,0,0,100,0.00,40.00,0,-999,0,0.00
2013-2-4,76,66,58,-100,-100,-100,0,0,100,0.00,40.00,0,-999,0,0.00
2013-2-5,86,68,61,-100,-100,-100,0,0,100,0.00,40.00,0,-999,0,0.00
2013-2-6,71,66,61,-100,-100,-100,0,0,100,0.00,40.00,0,-999,0,0.00
2013-2-7,75,64,57,-100,-100,-100,0,0,100,0.00,40.00,0,-999,0,0.00
2013-2-8,73,63,55,-100,-100,-100,0,0,100,0.00,40.00,0,-999,0,0.00
2013-2-9,71,64,55,-100,-100,-100,0,0,100,0.00,40.00,0,-999,0,0.00
2013-2-10,74,69,64,-100,-100,-100,0,0,100,0.00,40.00,0,-999,0,0.00
2013-2-11,65,61,56,-100,-100,-100,0,0,100,0.00,40.00,0,-999,0,0.00
2013-2-12,67,62,58,-100,-100,-100,0,0,100,0.00,40.00,0,-999,0,0.00
2013-2-13,62,54,44,-100,-100,-100,0,0,100,0.00,40.00,0,-999,0,0.00
2013-2-14,71,53,39,-100,-100,-100,0,0,100,0.00,40.00,0,-999,0,0.00
2013-2-15,69,56,43,-100,-100,-100,0,0,100,0.00,40.00,0,-999,0,0.00
2013-2-16,68,55,41,-100,-100,-100,0,0,100,0.00,40.00,0,-999,0,0.00
2013-2-17,71,60,40,-100,-100,-100,0,0,100,0.00,40.00,0,-999,0,0.00
2013-2-18,76,70,65,-100,-100,-100,0,0,100,0.00,40.00,0,-999,0,0.00
2013-2-19,73,61,53,-100,-100,-100,0,0,100,0.00,40.00,0,-999,0,0.00
2013-2-20,71,65,57,-100,-100,-100,0,0,100,0.00,40.00,0,-999,0,0.00
2013-2-21,83,71,64,-100,-100,-100,0,0,100,0.00,40.00,0,-999,0,0.00
2013-2-22,70,63,58,-100,-100,-100,0,0,100,0.00,40.00,0,-999,0,0.00
2013-2-23,69,59,50,-100,-100,-100,0,0,100,0.00,40.00,0,-999,0,0.00
2013-2-24,73,59,45,-100,-100,-100,0,0,100,0.00,40.00,0,-999,0,0.00
2013-2-25,80,65,52,-100,-100,-100,0,0,100,0.00,40.00,0,-999,0,0.00
2013-2-26,70,56,43,-100,-100,-100,0,0,100,0.00,40.00,0,-999,0,0.00
2013-2-27,77,57,46,-100,-100,-100,0,0,100,0.00,40.00,0,-999,0,0.00
2013-2-28,60,50,41,-100,-100,-100,0,0,100,0.00,40.00,0,-999,0,0.00
2013-3-1,73,55,40,-100,-100,-100,0,0,100,0.00,40.00,0,-999,0,0.00
2013-3-2,61,50,40,-100,-100,-100,0,0,100,0.00,40.00,0,-999,0,0.00
2013-3-3,69,55,36,-100,-100,-100,0,0,100,0.00,40.00,0,-999,0,0.00
2013-3-4,78,68,60,-100,-100,-100,0,0,100,0.00,40.00,0,-999,0,0.00
2013-3-5,71,64,51,-100,-100,-100,0,0,100,0.00,40.00,0,-999,0,0.00
2013-3-6,73,52,36,-100,-100,-100,0,0,100,0.00,40.00,0,-999,0,0.00
2013-3-7,72,58,43,-100,-100,-100,0,0,100,0.00,40.00,0,-999,0,0.00
2013-3-8,75,65,57,-100,-100,-100,0,0,100,0.00,40.00,0,-999,0,0.00
2013-3-9,79,71,67,-100,-100,-100,0,0,100,0.00,40.00,0,-999,0,0.00
2013-3-10,73,67,57,-100,-100,-100,0,0,100,0.00,40.00,0,-999,0,0.00
2013-3-11,69,56,43,-100,-100,-100,0,0,100,0.00,40.00,0,-999,0,0.00
2013-3-12,80,58,38,-100,-100,-100,0,0,100,0.00,40.00,0,-999,0,0.00
2013-3-13,78,62,47,-100,-100,-100,0,0,100,0.00,40.00,0,-999,0,0.00
2013-3-14,76,60,46,-100,-100,-100,0,0,100,0.00,40.00,0,-999,0,0.00
2013-3-15,79,65,53,-100,-100,-100,0,0,100,0.00,40.00,0,-999,0,0.00
2013-3-16,80,69,61,-100,-100,-100,0,0,100,0.00,40.00,0,-999,0,0.00
2013-3-17,80,72,66,-100,-100,-100,0,0,100,0.00,40.00,0,-999,0,0.00
2013-3-18,87,76,69,-100,-100,-100,0,0,100,0.00,40.00,0,-999,0,0.00
2013-3-19,83,71,60,-100,-100,-100,0,0,100,0.00,40.00,0,-999,0,0.00
2013-3-20,76,69,60,-100,-100,-100,0,0,100,0.00,40.00,0,-999,0,0.00
2013-3-21,76,66,54,-100,-100,-100,0,0,100,0.00,40.00,0,-999,0,0.00
2013-3-22,80,74,69,-100,-100,-100,0,0,100,0.00,40.00,0,-999,0,0.00
2013-3-23,78,71,63,-100,-100,-100,0,0,100,0.00,40.00,0,-999,0,0.00
2013-3-24,65,60,48,-100,-100,-100,0,0,100,0.00,40.00,0,-999,0,0.00
2013-3-25,65,53,41,-100,-100,-100,0,0,100,0.00,40.00,0,-999,0,0.00
2013-3-26,67,54,38,-100,-100,-100,0,0,100,0.00,40.00,0,-999,0,0.00
2013-3-27,71,59,41,-100,-100,-100,0,0,100,0.00,40.00,0,-999,0,0.00
2013-3-28,75,68,61,-100,-100,-100,0,0,100,0.00,40.00,0,-999,0,0.00
2013-3-29,81,68,59,-100,-100,-100,0,0,100,0.00,40.00,0,-999,0,0.00
2013-3-30,83,72,62,-100,-100,-100,0,0,100,0.00,40.00,0,-999,0,0.00
2013-3-31,84,74,69,-100,-100,-100,0,0,100,0.00,40.00,0,-999,0,0.00
2013-4-1,87,73,65,-100,-100,-100,0,0,100,0.00,40.00,0,-999,0,0.00
2013-4-2,80,71,65,-100,-100,-100,0,0,100,0.00,40.00,0,-999,0,0.00
2013-4-3,69,63,55,-100,-100,-100,0,0,100,0.00,40.00,0,-999,0,0.00
2013-4-4,62,56,51,-100,-100,-100,0,0,100,0.00,40.00,0,-999,0,0.00
2013-4-5,75,59,44,-100,-100,-100,0,0,100,0.00,40.00,0,-999,0,0.00
2013-4-6,79,66,54,-100,-100,-100,0,0,100,0.00,40.00,0,-999,0,0.00
2013-4-7,80,71,62,-100,-100,-100,0,0,100,0.00,40.00,0,-999,0,0.00
2013-4-8,82,73,68,-100,-100,-100,0,0,100,0.00,40.00,0,-999,0,0.00
2013-4-9,83,76,69,-100,-100,-100,0,0,100,0.00,40.00,0,-999,0,0.00
2013-4-10,79,65,51,-100,-100,-100,0,0,100,0.00,40.00,0,-999,0,0.00
2013-4-11,73,56,46,-100,-100,-100,0,0,100,0.00,40.00,0,-999,0,0.00
2013-4-12,81,62,50,-100,-100,-100,0,0,100,0.00,40.00,0,-999,0,0.00
2013-4-13,78,66,54,-100,-100,-100,0,0,100,0.00,40.00,0,-999,0,0.00
2013-4-14,87,71,58,-100,-100,-100,0,0,100,0.00,40.00,0,-999,0,0.00
2013-4-15,84,75,71,-100,-100,-100,0,0,100,0.00,40.00,0,-999,0,0.00
2013-4-16,82,76,70,-100,-100,-100,0,0,100,0.00,40.00,0,-999,0,0.00
2013-4-17,80,77,74,-100,-100,-100,0,0,100,0.00,40.00,0,-999,0,0.00
2013-4-18,80,68,57,-100,-100,-100,0,0,100,0.00,40.00,0,-999,0,0.00
2013-4-19,70,57,48,-100,-100,-100,0,0,100,0.00,40.00,0,-999,0,0.00
2013-4-20,73,58,40,-100,-100,-100,0,0,100,0.00,40.00,0,-999,0,0.00
2013-4-21,81,65,54,-100,-100,-100,0,0,100,0.00,40.00,0,-999,0,0.00
2013-4-22,87,70,58,-100,-100,-100,0,0,100,0.00,40.00,0,-999,0,0.00
2013-4-23,83,76,67,-100,-100,-100,0,0,100,0.00,40.00,0,-999,0,0.00
2013-4-24,75,58,50,-100,-100,-100,0,0,100,0.00,40.00,0,-999,0,0.00
2013-4-25,67,64,62,-100,-100,-100,0,0,100,0.00,40.00,0,-999,0,0.00
2013-4-26,83,74,67,-100,-100,-100,0,0,100,0.00,40.00,0,-999,0,0.00
2013-4-27,84,76,72,-100,-100,-100,0,0,100,0.00,40.00,0,-999,0,0.00
2013-4-28,80,72,65,-100,-100,-100,0,0,100,0.00,40.00,0,-999,0,0.00
2013-4-29,81,74,67,-100,-100,-100,0,0,100,0.00,40.00,0,-999,0,0.00
2013-4-30,84,76,69,-100,-100,-100,0,0,100,0.00,40.00,0,-999,0,0.00
2013-5-1,87,77,70,-100,-100,-100,0,0,100,0.00,40.00,0,-999,0,0.00
2013-5-2,82,68,52,-100,-100,-100,0,0,100,0.00,40.00,0,-999,0,0.00
2013-5-3,69,56,49,-100,-100,-100,0,0,100,0.00,40.00,0,-999,0,0.00
2013-5-4,87,67,44,-100,-100,-100,0,0,100,0.00,40.00,0,-999,0,0.00
2013-5-5,79,67,54,-100,-100,-100,0,0,100,0.00,40.00,0,-999,0,0.00
2013-5-6,85,69,54,-100,-100,-100,0,0,100,0.00,40.00,0,-999,0,0.00
2013-5-7,86,71,58,-100,-100,-100,0,0,100,0.00,40.00,0,-999,0,0.00
2013-5-8,84,74,64,-100,-100,-100,0,0,100,0.00,40.00,0,-999,0,0.00
2013-5-9,83,77,73,-100,-100,-100,0,0,100,0.00,40.00,0,-999,0,0.00
2013-5-10,83,77,69,-100,-100,-100,0,0,100,0.00,40.00,0,-999,0,0.00
2013-5-11,88,77,69,-100,-100,-100,0,0,100,0.00,40.00,0,-999,0,0.00
2013-5-12,83,75,68,-100,-100,-100,0,0,100,0.00,40.00,0,-999,0,0.00
2013-5-13,86,73,62,-100,-100,-100,0,0,100,0.00,40.00,0,-999,0,0.00
2013-5-14,84,72,64,-100,-100,-100,0,0,100,0.00,40.00,0,-999,0,0.00
2013-5-15,80,74,72,-100,-100,-100,0,0,100,0.00,40.00,0,-999,0,0.00
2013-5-16,83,78,73,-100,-100,-100,0,0,100,0.00,40.00,0,-999,0,0.00
2013-5-17,86,80,74,-100,-100,-100,0,0,100,0.00,40.00,0,-999,0,0.00
2013-5-18,90,82,77,-100,-100,-100,0,0,100,0.00,40.00,0,-999,0,0.00
2013-5-19,88,82,78,-100,-100,-100,0,0,100,0.00,40.00,0,-999,0,0.00
2013-5-20,88,82,79,-100,-100,-100,0,0,100,0.00,40.00,0,-999,0,0.00
2013-5-21,88,82,78,-100,-100,-100,0,0,100,0.00,40.00,0,-999,0,0.00
2013-5-22,92,83,78,-100,-100,-100,0,0,100,0.00,40.00,0,-999,0,0.00
2013-5-23,91,81,76,-100,-100,-100,0,0,100,0.00,40.00,0,-999,0,0.00
2013-5-24,91,82,76,-100,-100,-100,0,0,100,0.00,40.00,0,-999,0,0.00
2013-5-25,87,80,77,-100,-100,-100,0,0,100,0.00,40.00,0,-999,0,0.00
2013-5-26,91,82,74,-100,-100,-100,0,0,100,0.00,40.00,0,-999,0,0.00
2013-5-27,89,81,76,-100,-100,-100,0,0,100,0.00,40.00,0,-999,0,0.00
2013-5-28,87,82,77,-100,-100,-100,0,0,100,0.00,40.00,0,-999,0,0.00
2013-5-29,85,81,79,-100,-100,-100,0,0,100,0.00,40.00,0,-999,0,0.00
2013-5-30,91,83,79,-100,-100,-100,0,0,100,0.00,40.00,0,-999,0,0.00
2013-5-31,94,84,80,-100,-100,-100,0,0,100,0.00,40.00,0,-999,0,0.00
2013-6-1,92,85,80,-100,-100,-100,0,0,100,0.00,40.00,0,-999,0,0.00
2013-6-2,88,80,70,-100,-100,-100,0,0,100,0.00,40.00,0,-999,0,0.00
2013-6-3,93,82,71,-100,-100,-100,0,0,100,0.00,40.00,0,-999,0,0.00
2013-6-4,91,80,71,-100,-100,-100,0,0,100,0.00,40.00,0,-999,0,0.00
2013-6-5,94,84,73,-100,-100,-100,0,0,100,0.00,40.00,0,-999,0,0.00
2013-6-6,98,84,74,-100,-100,-100,0,0,100,0.00,40.00,0,-999,0,0.00
2013-6-7,92,80,73,-100,-100,-100,0,0,100,0.00,40.00,0,-999,0,0.00
2013-6-8,95,81,74,-100,-100,-100,0,0,100,0.00,40.00,0,-999,0,0.00
2013-6-9,91,80,73,-100,-100,-100,0,0,100,0.00,40.00,0,-999,0,0.00
2013-6-10,98,83,73,-100,-100,-100,0,0,100,0.00,40.00,0,-999,0,0.00
2013-6-11,93,84,76,-100,-100,-100,0,0,100,0.00,40.00,0,-999,0,0.00
2013-6-12,98,85,79,-100,-100,-100,0,0,100,0.00,40.00,0,-999,0,0.00
2013-6-13,100,85,80,-100,-100,-100,0,0,100,0.00,40.00,0,-999,0,0.00
2013-6-14,97,86,78,-100,-100,-100,0,0,100,0.00,40.00,0,-999,0,0.00
2013-6-15,97,86,78,-100,-100,-100,0,0,100,0.00,40.00,0,-999,0,0.00
2013-6-16,97,87,79,-100,-100,-100,0,0,100,0.00,40.00,0,-999,0,0.00
2013-6-17,96,86,81,-100,-100,-100,0,0,100,0.00,40.00,0,-999,0,0.00
2013-6-18,96,87,80,-100,-100,-100,0,0,100,0.00,40.00,0,-999,0,0.00
2013-6-19,97,87,80,-100,-100,-100,0,0,100,0.00,40.00,0,-999,0,0.00
2013-6-20,96,86,79,-100,-100,-100,0,0,100,0.00,40.00,0,-999,0,0.00
2013-6-22,96,89,81,-100,-100,-100,0,0,100,0.00,40.00,0,-999,0,0.00
2013-6-23,95,87,78,-100,-100,-100,0,0,100,0.00,40.00,0,-999,0,0.00
2013-6-24,95,87,80,-100,-100,-100,0,0,100,0.00,40.00,0,-999,0,0.00
2013-6-25,97,87,82,-100,-100,-100,0,0,100,0.00,40.00,0,-999,0,0.00
2013-6-26,97,88,81,-100,-100,-100,0,0,100,0.00,40.00,0,-999,0,0.00
2013-6-27,97,84,80,-100,-100,-100,0,0,100,0.00,40.00,0,-999,0,0.00
2013-6-28,98,86,76,-100,-100,-100,0,0,100,0.00,40.00,0,-999,0,0.00
2013-6-29,103,89,80,-100,-100,-100,0,0,100,0.00,40.00,0,-999,0,0.00
2013-6-30,101,89,80,-100,-100,-100,0,0,100,0.00,40.00,0,-999,0,0.00
2013-7-1,98,88,78,-100,-100,-100,0,0,100,0.00,40.00,0,-999,0,0.00
2013-7-2,98,85,73,-100,-100,-100,0,0,100,0.00,40.00,0,-999,0,0.00
2013-7-3,96,83,72,-100,-100,-100,0,0,100,0.00,40.00,0,-999,0,0.00
2013-7-4,93,81,72,-100,-100,-100,0,0,100,0.00,40.00,0,-999,0,0.00
2013-7-5,97,84,72,-100,-100,-100,0,0,100,0.00,40.00,0,-999,0,0.00
2013-7-6,96,84,75,-100,-100,-100,0,0,100,0.00,40.00,0,-999,0,0.00
2013-7-7,92,85,78,-100,-100,-100,0,0,100,0.00,40.00,0,-999,0,0.00
2013-7-8,93,82,76,-100,-100,-100,0,0,100,0.00,40.00,0,-999,0,0.00
2013-7-9,98,86,78,-100,-100,-100,0,0,100,0.00,40.00,0,-999,0,0.00
2013-7-10,95,87,80,-100,-100,-100,0,0,100,0.00,40.00,0,-999,0,0.00
2013-7-11,97,83,77,-100,-100,-100,0,0,100,0.00,40.00,0,-999,0,0.00
2013-7-12,98,86,77,-100,-100,-100,0,0,100,0.00,40.00,0,-999,0,0.00
2013-7-13,98,84,76,-100,-100,-100,0,0,100,0.00,40.00,0,-999,0,0.00
2013-7-14,95,87,79,-100,-100,-100,0,0,100,0.00,40.00,0,-999,0,0.00
2013-7-15,94,83,76,-100,-100,-100,0,0,100,0.00,40.00,0,-999,0,0.00
2013-7-16,89,81,76,-100,-100,-100,0,0,100,0.00,40.00,0,-999,0,0.00
2013-7-17,88,80,76,-100,-100,-100,0,0,100,0.00,40.00,0,-999,0,0.00
2013-7-18,91,84,76,-100,-100,-100,0,0,100,0.00,40.00,0,-999,0,0.00
2013-7-19,94,83,76,-100,-100,-100,0,0,100,0.00,40.00,0,-999,0,0.00
2013-7-20,94,83,76,-100,-100,-100,0,0,100,0.00,40.00,0,-999,0,0.00
2013-7-21,88,81,76,-100,-100,-100,0,0,100,0.00,40.00,0,-999,0,0.00
2013-7-22,93,87,83,-100,-100,-100,0,0,100,0.00,40.00,0,-999,0,0.00
2013-7-23,94,86,81,-100,-100,-100,0,0,100,0.00,40.00,0,-999,0,0.00
2013-7-24,95,86,79,-100,-100,-100,0,0,100,0.00,40.00,0,-999,0,0.00
2013-7-25,98,85,78,-100,-100,-100,0,0,100,0.00,40.00,0,-999,0,0.00
2013-7-26,94,87,80,-100,-100,-100,0,0,100,0.00,40.00,0,-999,0,0.00
2013-7-27,94,86,82,-100,-100,-100,0,0,100,0.00,40.00,0,-999,0,0.00
2013-7-28,94,88,81,-100,-100,-100,0,0,100,0.00,40.00,0,-999,0,0.00
2013-7-29,94,87,82,-100,-100,-100,0,0,100,0.00,40.00,0,-999,0,0.00
2013-7-30,96,86,80,-100,-100,-100,0,0,100,0.00,40.00,0,-999,0,0.00
2013-7-31,98,84,76,-100,-100,-100,0,0,100,0.00,40.00,0,-999,0,0.00
2013-8-1,95,85,80,-100,-100,-100,0,0,100,0.00,40.00,0,-999,0,0.00
2013-8-2,96,86,77,-100,-100,-100,0,0,100,0.00,40.00,0,-999,0,0.00
2013-8-3,99,85,77,-100,-100,-100,0,0,100,0.00,40.00,0,-999,0,0.00
2013-8-4,97,88,82,-100,-100,-100,0,0,100,0.00,40.00,0,-999,0,0.00
2013-8-5,96,87,81,-100,-100,-100,0,0,100,0.00,40.00,0,-999,0,0.00
2013-8-6,96,88,83,-100,-100,-100,0,0,100,0.00,40.00,0,-999,0,0.00
2013-8-7,98,88,82,-100,-100,-100,0,0,100,0.00,40.00,0,-999,0,0.00
2013-8-8,98,86,80,-100,-100,-100,0,0,100,0.00,40.00,0,-999,0,0.00
2013-8-9,101,87,76,-100,-100,-100,0,0,100,0.00,40.00,0,-999,0,0.00
2013-8-10,96,87,80,-100,-100,-100,0,0,100,0.00,40.00,0,-999,0,0.00
2013-8-11,91,83,79,-100,-100,-100,0,0,100,0.00,40.00,0,-999,0,0.00
2013-8-12,98,86,79,-100,-100,-100,0,0,100,0.00,40.00,0,-999,0,0.00
2013-8-13,97,86,81,-100,-100,-100,0,0,100,0.00,40.00,0,-999,0,0.00
2013-8-14,99,86,81,-100,-100,-100,0,0,100,0.00,40.00,0,-999,0,0.00
2013-8-15,99,85,80,-100,-100,-100,0,0,100,0.00,40.00,0,-999,0,0.00
2013-8-16,100,84,73,-100,-100,-100,0,0,100,0.00,40.00,0,-999,0,0.00
2013-8-17,97,83,73,-100,-100,-100,0,0,100,0.00,40.00,0,-999,0,0.00
2013-8-18,94,85,74,-100,-100,-100,0,0,100,0.00,40.00,0,-999,0,0.00
2013-8-19,94,82,73,-100,-100,-100,0,0,100,0.00,40.00,0,-999,0,0.00
2013-8-20,83,80,77,-100,-100,-100,0,0,100,0.00,40.00,0,-999,0,0.00
2013-8-21,93,82,76,-100,-100,-100,0,0,100,0.00,40.00,0,-999,0,0.00
2013-8-22,94,85,77,-100,-100,-100,0,0,100,0.00,40.00,0,-999,0,0.00
2013-8-23,95,85,77,-100,-100,-100,0,0,100,0.00,40.00,0,-999,0,0.00
2013-8-24,96,85,78,-100,-100,-100,0,0,100,0.00,40.00,0,-999,0,0.00
2013-8-25,89,82,77,-100,-100,-100,0,0,100,0.00,40.00,0,-999,0,0.00
2013-8-26,80,78,75,-100,-100,-100,0,0,100,0.00,40.00,0,-999,0,0.00
2013-8-27,90,80,76,-100,-100,-100,0,0,100,0.00,40.00,0,-999,0,0.00
2013-8-28,94,88,80,-100,-100,-100,0,0,100,0.00,40.00,0,-999,0,0.00
2013-8-29,94,82,77,-100,-100,-100,0,0,100,0.00,40.00,0,-999,0,0.00
2013-8-30,94,84,80,-100,-100,-100,0,0,100,0.00,40.00,0,-999,0,0.00
2013-8-31,95,82,76,-100,-100,-100,0,0,100,0.00,40.00,0,-999,0,0.00
2013-9-1,96,85,77,-100,-100,-100,0,0,100,0.00,40.00,0,-999,0,0.00
2013-9-2,92,82,78,-100,-100,-100,0,0,100,0.00,40.00,0,-999,0,0.00
2013-9-3,99,85,77,-100,-100,-100,0,0,100,0.00,40.00,0,-999,0,0.00
2013-9-4,94,85,78,-100,-100,-100,0,0,100,0.00,40.00,0,-999,0,0.00
2013-9-5,91,84,78,-100,-100,-100,0,0,100,0.00,40.00,0,-999,0,0.00
2013-9-6,94,84,77,-100,-100,-100,0,0,100,0.00,40.00,0,-999,0,0.00
2013-9-7,93,82,78,-100,-100,-100,0,0,100,0.00,40.00,0,-999,0,0.00
2013-9-8,91,81,76,-100,-100,-100,0,0,100,0.00,40.00,0,-999,0,0.00
2013-9-9,89,80,76,-100,-100,-100,0,0,100,0.00,40.00,0,-999,0,0.00
2013-9-10,90,82,76,-100,-100,-100,0,0,100,0.00,40.00,0,-999,0,0.00
2013-9-11,91,82,76,-100,-100,-100,0,0,100,0.00,40.00,0,-999,0,0.00
2013-9-12,93,84,76,-100,-100,-100,0,0,100,0.00,40.00,0,-999,0,0.00
2013-9-13,95,84,75,-100,-100,-100,0,0,100,0.00,40.00,0,-999,0,0.00
2013-9-14,93,83,74,-100,-100,-100,0,0,100,0.00,40.00,0,-999,0,0.00
2013-9-15,91,82,77,-100,-100,-100,0,0,100,0.00,40.00,0,-999,0,0.00
2013-9-16,94,85,79,-100,-100,-100,0,0,100,0.00,40.00,0,-999,0,0.00
2013-9-17,91,84,78,-100,-100,-100,0,0,100,0.00,40.00,0,-999,0,0.00
2013-9-18,82,79,77,-100,-100,-100,0,0,100,0.00,40.00,0,-999,0,0.00
2013-9-19,93,84,79,-100,-100,-100,0,0,100,0.00,40.00,0,-999,0,0.00
2013-9-20,87,83,77,-100,-100,-100,0,0,100,0.00,40.00,0,-999,0,0.00
2013-9-21,80,77,73,-100,-100,-100,0,0,100,0.00,40.00,0,-999,0,0.00
2013-9-22,87,78,69,-100,-100,-100,0,0,100,0.00,40.00,0,-999,0,0.00
2013-9-23,89,79,72,-100,-100,-100,0,0,100,0.00,40.00,0,-999,0,0.00
2013-9-24,95,84,76,-100,-100,-100,0,0,100,0.00,40.00,0,-999,0,0.00
2013-9-25,95,81,74,-100,-100,-100,0,0,100,0.00,40.00,0,-999,0,0.00
2013-9-26,91,81,71,-100,-100,-100,0,0,100,0.00,40.00,0,-999,0,0.00
2013-9-27,91,84,78,-100,-100,-100,0,0,100,0.00,40.00,0,-999,0,0.00
2013-9-28,93,86,81,-100,-100,-100,0,0,100,0.00,40.00,0,-999,0,0.00
2013-9-29,91,83,76,-100,-100,-100,0,0,100,0.00,40.00,0,-999,0,0.00
2013-9-30,90,80,75,-100,-100,-100,0,0,100,0.00,40.00,0,-999,0,0.00
2013-10-1,82,79,76,-100,-100,-100,0,0,100,0.00,40.00,0,-999,0,0.00
2013-10-2,92,82,76,-100,-100,-100,0,0,100,0.00,40.00,0,-999,0,0.00
2013-10-3,94,83,77,-100,-100,-100,0,0,100,0.00,40.00,0,-999,0,0.00
2013-10-4,91,82,74,-100,-100,-100,0,0,100,0.00,40.00,0,-999,0,0.00
2013-10-5,98,82,71,-100,-100,-100,0,0,100,0.00,40.00,0,-999,0,0.00
2013-10-6,80,68,56,-100,-100,-100,0,0,100,0.00,40.00,0,-999,0,0.00
2013-10-7,83,67,54,-100,-100,-100,0,0,100,0.00,40.00,0,-999,0,0.00
2013-10-8,87,69,55,-100,-100,-100,0,0,100,0.00,40.00,0,-999,0,0.00
2013-10-9,87,73,60,-100,-100,-100,0,0,100,0.00,40.00,0,-999,0,0.00
2013-10-10,90,76,65,-100,-100,-100,0,0,100,0.00,40.00,0,-999,0,0.00
2013-10-11,88,79,73,-100,-100,-100,0,0,100,0.00,40.00,0,-999,0,0.00
2013-10-12,92,82,77,-100,-100,-100,0,0,100,0.00,40.00,0,-999,0,0.00
2013-10-13,83,78,75,-100,-100,-100,0,0,100,0.00,40.00,0,-999,0,0.00
2013-10-14,88,80,74,-100,-100,-100,0,0,100,0.00,40.00,0,-999,0,0.00
2013-10-15,90,80,74,-100,-100,-100,0,0,100,0.00,40.00,0,-999,0,0.00
2013-10-16,76,71,65,-100,-100,-100,0,0,100,0.00,40.00,0,-999,0,0.00
2013-10-17,80,69,62,-100,-100,-100,0,0,100,0.00,40.00,0,-999,0,0.00
2013-10-18,76,70,62,-100,-100,-100,0,0,100,0.00,40.00,0,-999,0,0.00
2013-10-19,71,65,54,-100,-100,-100,0,0,100,0.00,40.00,0,-999,0,0.00
2013-10-20,81,64,51,-100,-100,-100,0,0,100,0.00,40.00,0,-999,0,0.00
2013-10-21,77,70,64,-100,-100,-100,0,0,100,0.00,40.00,0,-999,0,0.00
2013-10-22,77,68,58,-100,-100,-100,0,0,100,0.00,40.00,0,-999,0,0.00
2013-10-23,87,68,53,-100,-100,-100,0,0,100,0.00,40.00,0,-999,0,0.00
2013-10-24,85,68,55,-100,-100,-100,0,0,100,0.00,40.00,0,-999,0,0.00
2013-10-25,80,68,59,-100,-100,-100,0,0,100,0.00,40.00,0,-999,0,0.00
2013-10-26,83,72,62,-100,-100,-100,0,0,100,0.00,40.00,0,-999,0,0.00
2013-10-27,83,73,67,-100,-100,-100,0,0,100,0.00,40.00,0,-999,0,0.00
2013-10-28,88,76,68,-100,-100,-100,0,0,100,0.00,40.00,0,-999,0,0.00
2013-10-29,87,78,73,-100,-100,-100,0,0,100,0.00,40.00,0,-999,0,0.00
2013-10-30,86,80,77,-100,-100,-100,0,0,100,0.00,40.00,0,-999,0,0.00
2013-10-31,80,78,70,-100,-100,-100,0,0,100,0.00,40.00,0,-999,0,0.00
2013-11-1,84,74,62,-100,-100,-100,0,0,100,0.00,40.00,0,-999,0,0.00
2013-11-2,74,66,55,-100,-100,-100,0,0,100,0.00,40.00,0,-999,0,0.00
2013-11-3,74,61,47,-100,-100,-100,0,0,100,0.00,40.00,0,-999,0,0.00
2013-11-4,71,67,59,-100,-100,-100,0,0,100,0.00,40.00,0,-999,0,0.00
2013-11-5,77,74,70,-100,-100,-100,0,0,100,0.00,40.00,0,-999,0,0.00
2013-11-6,87,73,58,-100,-100,-100,0,0,100,0.00,40.00,0,-999,0,0.00
2013-11-7,65,58,51,-100,-100,-100,0,0,100,0.00,40.00,0,-999,0,0.00
2013-11-8,70,59,50,-100,-100,-100,0,0,100,0.00,40.00,0,-999,0,0.00
2013-11-9,76,65,54,-100,-100,-100,0,0,100,0.00,40.00,0,-999,0,0.00
2013-11-10,74,67,58,-100,-100,-100,0,0,100,0.00,40.00,0,-999,0,0.00
2013-11-11,79,66,58,-100,-100,-100,0,0,100,0.00,40.00,0,-999,0,0.00
2013-11-12,73,62,53,-100,-100,-100,0,0,100,0.00,40.00,0,-999,0,0.00
2013-11-13,58,49,40,-100,-100,-100,0,0,100,0.00,40.00,0,-999,0,0.00
2013-11-14,69,55,42,-100,-100,-100,0,0,100,0.00,40.00,0,-999,0,0.00
2013-11-15,86,68,58,-100,-100,-100,0,0,100,0.00,40.00,0,-999,0,0.00
2013-11-16,84,75,65,-100,-100,-100,0,0,100,0.00,40.00,0,-999,0,0.00
2013-11-17,84,78,73,-100,-100,-100,0,0,100,0.00,40.00,0,-999,0,0.00
2013-11-18,83,73,69,-100,-100,-100,0,0,100,0.00,40.00,0,-999,0,0.00
2013-11-19,70,66,61,-100,-100,-100,0,0,100,0.00,40.00,0,-999,0,0.00
2013-11-20,76,71,63,-100,-100,-100,0,0,100,0.00,40.00,0,-999,0,0.00
2013-11-21,85,78,73,-100,-100,-100,0,0,100,0.00,40.00,0,-999,0,0.00
2013-11-22,75,57,43,-100,-100,-100,0,0,100,0.00,40.00,0,-999,0,0.00
2013-11-23,50,46,42,-100,-100,-100,0,0,100,0.00,40.00,0,-999,0,0.00
2013-11-24,50,48,43,-100,-100,-100,0,0,100,0.00,40.00,0,-999,0,0.00
2013-11-25,44,42,41,-100,-100,-100,0,0,100,0.00,40.00,0,-999,0,0.00
2013-11-26,47,43,41,-100,-100,-100,0,0,100,0.00,40.00,0,-999,0,0.00
2013-11-27,52,42,34,-100,-100,-100,0,0,100,0.00,40.00,0,-999,0,0.00
2013-11-28,64,46,34,-100,-100,-100,0,0,100,0.00,40.00,0,-999,0,0.00
2013-11-29,67,54,46,-100,-100,-100,0,0,100,0.00,40.00,0,-999,0,0.00
2013-11-30,75,59,47,-100,-100,-100,0,0,100,0.00,40.00,0,-999,0,0.00
2013-12-1,76,65,54,-100,-100,-100,0,0,100,0.00,40.00,0,-999,0,0.00
2013-12-2,79,66,62,-100,-100,-100,0,0,100,0.00,40.00,0,-999,0,0.00
2013-12-3,81,68,60,-100,-100,-100,0,0,100,0.00,40.00,0,-999,0,0.00
2013-12-4,80,72,66,-100,-100,-100,0,0,100,0.00,40.00,0,-999,0,0.00
2013-12-5,75,60,40,-100,-100,-100,0,0,100,0.00,40.00,0,-999,0,0.00
2013-12-6,43,39,36,-100,-100,-100,0,0,100,0.00,40.00,0,-999,0,0.00
2013-12-7,36,35,34,-100,-100,-100,0,0,100,0.00,40.00,0,-999,0,0.00
2013-12-8,50,43,35,-100,-100,-100,0,0,100,0.00,40.00,0,-999,0,0.00
2013-12-9,52,48,40,-100,-100,-100,0,0,100,0.00,40.00,0,-999,0,0.00
2013-12-10,49,40,34,-100,-100,-100,0,0,100,0.00,40.00,0,-999,0,0.00
2013-12-11,60,50,43,-100,-100,-100,0,0,100,0.00,40.00,0,-999,0,0.00
2013-12-12,54,47,41,-100,-100,-100,0,0,100,0.00,40.00,0,-999,0,0.00
2013-12-13,68,54,42,-100,-100,-100,0,0,100,0.00,40.00,0,-999,0,0.00
2013-12-14,64,54,42,-100,-100,-100,0,0,100,0.00,40.00,0,-999,0,0.00
2013-12-15,59,45,36,-100,-100,-100,0,0,100,0.00,40.00,0,-999,0,0.00
2013-12-16,67,48,32,-100,-100,-100,0,0,100,0.00,40.00,0,-999,0,0.00
2013-12-17,72,48,38,-100,-100,-100,0,0,100,0.00,40.00,0,-999,0,0.00
2013-12-18,73,56,42,-100,-100,-100,0,0,100,0.00,40.00,0,-999,0,0.00
2013-12-19,78,69,58,-100,-100,-100,0,0,100,0.00,40.00,0,-999,0,0.00
2013-12-20,77,73,69,-100,-100,-100,0,0,100,0.00,40.00,0,-999,0,0.00
2013-12-21,74,68,54,-100,-100,-100,0,0,100,0.00,40.00,0,-999,0,0.00
2013-12-22,69,58,43,-100,-100,-100,0,0,100,0.00,40.00,0,-999,0,0.00
2013-12-23,57,44,35,-100,-100,-100,0,0,100,0.00,40.00,0,-999,0,0.00
2013-12-24,62,44,34,-100,-100,-100,0,0,100,0.00,40.00,0,-999,0,0.00
2013-12-25,64,55,45,-100,-100,-100,0,0,100,0.00,40.00,0,-999,0,0.00
2013-12-26,61,56,53,-100,-100,-100,0,0,100,0.00,40.00,0,-999,0,0.00
2013-12-27,60,54,50,-100,-100,-100,0,0,100,0.00,40.00,0,-999,0,0.00
2013-12-28,65,53,43,-100,-100,-100,0,0,100,0.00,40.00,0,-999,0,0.00
2013-12-29,71,53,38,-100,-100,-100,0,0,100,0.00,40.00,0,-999,0,0.00
2013-12-30,52,42,39,-100,-100,-100,0,0,100,0.00,40.00,0,-999,0,0.00
2013-12-31,54,46,42,-100,-100,-100,0,0,100,0.00,40.00,0,-999,0,0.00
2014-1-1,66,57,47,-100,-100,-100,0,0,100,0.00,40.00,0,-999,0,0.00
2014-1-2,62,49,37,-100,-100,-100,0,0,100,0.00,40.00,0,-999,0,0.00